createdAt,value
2023-04-26T00:00:28.154Z,0.00
2023-04-26T00:01:28.334Z,0.00
2023-04-26T00:02:28.647Z,0.00
2023-04-26T00:03:28.809Z,0.00
2023-04-26T00:04:29.143Z,0.00
2023-04-26T00:05:29.080Z,0.00
2023-04-26T00:06:29.221Z,0.00
2023-04-26T00:07:29.399Z,0.00
2023-04-26T00:08:29.589Z,0.00
2023-04-26T00:09:29.786Z,0.00
2023-04-26T00:10:29.949Z,0.00
2023-04-26T00:11:30.114Z,0.00
2023-04-26T00:12:30.284Z,0.00
2023-04-26T00:13:30.466Z,0.00
2023-04-26T00:14:30.664Z,0.00
2023-04-26T00:15:30.822Z,0.00
2023-04-26T00:16:31.031Z,0.00
2023-04-26T00:17:31.224Z,0.00
2023-04-26T00:18:31.344Z,0.00
2023-04-26T00:19:31.540Z,0.00
2023-04-26T00:20:31.708Z,0.00
2023-04-26T00:21:31.861Z,0.00
2023-04-26T00:22:32.031Z,0.00
2023-04-26T00:23:32.197Z,0.00
2023-04-26T00:24:32.393Z,0.00
2023-04-26T00:25:32.550Z,0.00
2023-04-26T00:26:32.724Z,0.00
2023-04-26T00:27:32.889Z,0.00
2023-04-26T00:28:33.076Z,0.00
2023-04-26T00:29:33.266Z,0.00
2023-04-26T00:30:33.434Z,0.00
2023-04-26T00:31:33.734Z,0.00
2023-04-26T00:32:33.838Z,0.00
2023-04-26T00:33:33.967Z,0.00
2023-04-26T00:34:34.154Z,0.00
2023-04-26T00:35:34.307Z,0.00
2023-04-26T00:36:34.483Z,0.00
2023-04-26T00:37:34.668Z,0.00
2023-04-26T00:38:34.844Z,0.00
2023-04-26T00:39:35.047Z,0.00
2023-04-26T00:40:35.206Z,0.00
2023-04-26T00:41:35.374Z,0.00
2023-04-26T00:42:35.546Z,0.00
2023-04-26T00:43:35.726Z,0.00
2023-04-26T00:44:35.900Z,0.00
2023-04-26T00:45:36.112Z,0.00
2023-04-26T00:46:36.244Z,0.00
2023-04-26T00:47:36.502Z,0.00
2023-04-26T00:48:36.599Z,0.00
2023-04-26T00:49:36.788Z,0.00
2023-04-26T00:50:36.963Z,0.00
2023-04-26T00:51:37.128Z,0.00
2023-04-26T00:52:37.336Z,0.00
2023-04-26T00:53:37.486Z,0.00
2023-04-26T00:54:37.684Z,0.00
2023-04-26T00:55:37.875Z,0.00
2023-04-26T00:56:38.014Z,0.00
2023-04-26T00:57:38.197Z,0.00
2023-04-26T00:58:38.352Z,0.00
2023-04-26T00:59:38.557Z,0.00
2023-04-26T01:00:38.714Z,0.00
2023-04-26T01:01:38.919Z,0.00
2023-04-26T01:02:39.240Z,0.00
2023-04-26T01:03:39.359Z,0.00
2023-04-26T01:04:39.434Z,0.00
2023-04-26T01:05:39.595Z,0.00
2023-04-26T01:06:39.779Z,0.00
2023-04-26T01:07:40.027Z,0.00
2023-04-26T01:08:40.127Z,0.00
2023-04-26T01:09:40.318Z,0.00
2023-04-26T01:10:40.459Z,0.00
2023-04-26T01:11:40.638Z,0.00
2023-04-26T01:12:40.801Z,0.00
2023-04-26T01:13:40.975Z,0.00
2023-04-26T01:14:41.155Z,0.00
2023-04-26T01:15:41.316Z,0.00
2023-04-26T01:16:41.506Z,0.00
2023-04-26T01:17:41.714Z,0.00
2023-04-26T01:18:41.836Z,0.00
2023-04-26T01:19:42.023Z,0.00
2023-04-26T01:20:42.197Z,0.00
2023-04-26T01:21:42.383Z,0.00
2023-04-26T01:22:42.546Z,0.00
2023-04-26T01:23:42.706Z,0.00
2023-04-26T01:24:42.911Z,0.00
2023-04-26T01:25:43.079Z,0.00
2023-04-26T01:26:43.263Z,0.00
2023-04-26T01:27:43.421Z,0.00
2023-04-26T01:28:43.608Z,0.00
2023-04-26T01:29:43.778Z,0.00
2023-04-26T01:30:44.018Z,0.00
2023-04-26T01:31:44.108Z,0.00
2023-04-26T01:32:44.301Z,0.00
2023-04-26T01:33:44.436Z,0.00
2023-04-26T01:34:44.624Z,0.00
2023-04-26T01:35:44.789Z,0.00
2023-04-26T01:36:44.950Z,0.00
2023-04-26T01:37:45.124Z,0.00
2023-04-26T01:38:45.296Z,0.00
2023-04-26T01:39:45.470Z,0.00
2023-04-26T01:40:45.637Z,0.00
2023-04-26T01:41:45.801Z,0.00
2023-04-26T01:42:46.000Z,0.00
2023-04-26T01:43:46.182Z,0.00
2023-04-26T01:44:46.347Z,0.00
2023-04-26T01:45:46.525Z,0.00
2023-04-26T01:46:46.745Z,0.00
2023-04-26T01:47:46.905Z,0.00
2023-04-26T01:48:47.044Z,0.00
2023-04-26T01:49:47.182Z,0.00
2023-04-26T01:50:47.367Z,0.00
2023-04-26T01:51:47.537Z,0.00
2023-04-26T01:52:47.696Z,0.00
2023-04-26T01:53:47.874Z,0.00
2023-04-26T01:54:48.037Z,0.00
2023-04-26T01:55:48.243Z,0.00
2023-04-26T01:56:48.380Z,0.00
2023-04-26T01:57:48.544Z,0.00
2023-04-26T01:58:48.744Z,0.00
2023-04-26T01:59:48.903Z,0.00
2023-04-26T02:00:49.045Z,0.00
2023-04-26T02:01:49.288Z,0.00
2023-04-26T02:02:49.463Z,0.00
2023-04-26T02:03:49.713Z,0.00
2023-04-26T02:04:49.763Z,0.00
2023-04-26T02:05:49.906Z,0.00
2023-04-26T02:06:50.096Z,0.00
2023-04-26T02:07:50.261Z,0.00
2023-04-26T02:08:50.493Z,0.00
2023-04-26T02:09:50.599Z,0.00
2023-04-26T02:10:50.777Z,0.00
2023-04-26T02:11:50.945Z,0.00
2023-04-26T02:12:51.154Z,0.00
2023-04-26T02:13:51.338Z,0.00
2023-04-26T02:14:51.517Z,0.00
2023-04-26T02:15:51.773Z,0.00
2023-04-26T02:16:51.933Z,0.00
2023-04-26T02:17:52.070Z,0.00
2023-04-26T02:18:52.392Z,0.00
2023-04-26T02:19:52.402Z,0.00
2023-04-26T02:20:52.576Z,0.00
2023-04-26T02:21:52.763Z,0.00
2023-04-26T02:22:52.925Z,0.00
2023-04-26T02:23:53.107Z,0.00
2023-04-26T02:24:53.263Z,0.00
2023-04-26T02:25:53.450Z,0.00
2023-04-26T02:26:53.621Z,0.00
2023-04-26T02:27:53.783Z,0.00
2023-04-26T02:28:54.222Z,0.00
2023-04-26T02:29:54.126Z,0.00
2023-04-26T02:30:54.286Z,0.00
2023-04-26T02:31:54.486Z,0.00
2023-04-26T02:32:54.647Z,0.00
2023-04-26T02:33:54.802Z,0.00
2023-04-26T02:34:54.973Z,0.00
2023-04-26T02:35:55.143Z,0.00
2023-04-26T02:36:55.343Z,0.00
2023-04-26T02:37:55.495Z,0.00
2023-04-26T02:38:55.699Z,0.00
2023-04-26T02:39:55.879Z,0.00
2023-04-26T02:40:56.033Z,0.00
2023-04-26T02:41:56.200Z,0.00
2023-04-26T02:42:56.377Z,0.00
2023-04-26T02:43:56.550Z,0.00
2023-04-26T02:44:56.722Z,0.00
2023-04-26T02:45:56.892Z,0.00
2023-04-26T02:46:57.068Z,0.00
2023-04-26T02:47:57.256Z,0.00
2023-04-26T02:48:57.409Z,0.00
2023-04-26T02:49:57.607Z,0.00
2023-04-26T02:50:57.772Z,0.00
2023-04-26T02:51:57.954Z,0.00
2023-04-26T02:52:58.114Z,0.00
2023-04-26T02:53:58.286Z,0.00
2023-04-26T02:54:58.470Z,0.00
2023-04-26T02:55:58.635Z,0.00
2023-04-26T02:56:58.799Z,0.00
2023-04-26T02:57:58.963Z,0.00
2023-04-26T02:58:59.134Z,0.00
2023-04-26T02:59:59.308Z,0.00
2023-04-26T03:01:01.435Z,0.00
2023-04-26T03:01:59.728Z,0.00
2023-04-26T03:02:59.965Z,0.00
2023-04-26T03:04:00.161Z,0.00
2023-04-26T03:05:00.227Z,0.00
2023-04-26T03:06:00.340Z,0.00
2023-04-26T03:07:00.508Z,0.00
2023-04-26T03:08:00.698Z,0.00
2023-04-26T03:09:00.907Z,0.00
2023-04-26T03:10:01.030Z,0.00
2023-04-26T03:11:01.206Z,0.00
2023-04-26T03:12:01.381Z,4.00
2023-04-26T03:13:01.556Z,4.00
2023-04-26T03:14:01.728Z,4.00
2023-04-26T03:15:01.909Z,0.00
2023-04-26T03:16:02.179Z,4.00
2023-04-26T03:17:02.330Z,4.00
2023-04-26T03:18:02.501Z,8.00
2023-04-26T03:19:02.605Z,4.00
2023-04-26T03:20:03.075Z,8.00
2023-04-26T03:21:02.970Z,8.00
2023-04-26T03:22:03.123Z,8.00
2023-04-26T03:23:03.310Z,8.00
2023-04-26T03:24:03.489Z,12.00
2023-04-26T03:25:03.651Z,12.00
2023-04-26T03:26:03.818Z,16.00
2023-04-26T03:27:04.016Z,20.00
2023-04-26T03:28:04.179Z,20.00
2023-04-26T03:29:04.388Z,24.00
2023-04-26T03:30:04.532Z,28.00
2023-04-26T03:31:04.722Z,32.00
2023-04-26T03:32:05.056Z,36.00
2023-04-26T03:33:05.160Z,44.00
2023-04-26T03:34:05.274Z,48.00
2023-04-26T03:35:05.469Z,60.00
2023-04-26T03:36:05.605Z,64.00
2023-04-26T03:37:05.819Z,76.00
2023-04-26T03:38:05.998Z,80.00
2023-04-26T03:39:06.194Z,92.00
2023-04-26T03:40:06.342Z,100.00
2023-04-26T03:41:06.518Z,116.00
2023-04-26T03:42:06.688Z,124.00
2023-04-26T03:43:06.854Z,140.00
2023-04-26T03:44:07.019Z,156.00
2023-04-26T03:45:07.164Z,176.00
2023-04-26T03:46:07.369Z,196.00
2023-04-26T03:47:07.561Z,212.00
2023-04-26T03:48:07.840Z,232.00
2023-04-26T03:49:07.914Z,256.00
2023-04-26T03:50:08.121Z,280.00
2023-04-26T03:51:08.258Z,304.00
2023-04-26T03:52:08.440Z,332.00
2023-04-26T03:53:08.636Z,364.00
2023-04-26T03:54:08.803Z,396.00
2023-04-26T03:55:08.975Z,428.00
2023-04-26T03:56:09.126Z,464.00
2023-04-26T03:57:09.293Z,492.00
2023-04-26T03:58:09.499Z,532.00
2023-04-26T03:59:09.664Z,568.00
2023-04-26T04:00:09.810Z,608.00
2023-04-26T04:01:09.995Z,648.00
2023-04-26T04:02:10.212Z,688.00
2023-04-26T04:03:10.646Z,732.00
2023-04-26T04:04:10.719Z,780.00
2023-04-26T04:05:10.716Z,836.00
2023-04-26T04:06:10.865Z,892.00
2023-04-26T04:07:11.029Z,960.00
2023-04-26T04:08:11.197Z,1020.00
2023-04-26T04:09:11.386Z,1068.00
2023-04-26T04:10:11.582Z,1120.00
2023-04-26T04:11:11.814Z,1188.00
2023-04-26T04:12:11.922Z,1276.00
2023-04-26T04:13:12.074Z,1380.00
2023-04-26T04:14:12.265Z,1492.00
2023-04-26T04:15:12.419Z,1584.00
2023-04-26T04:16:12.609Z,1664.00
2023-04-26T04:17:12.735Z,1768.00
2023-04-26T04:18:12.940Z,1904.00
2023-04-26T04:19:13.101Z,1924.00
2023-04-26T04:20:13.249Z,1924.00
2023-04-26T04:21:13.435Z,1964.00
2023-04-26T04:22:13.572Z,1956.00
2023-04-26T04:23:13.793Z,2028.00
2023-04-26T04:24:13.937Z,2168.00
2023-04-26T04:25:14.096Z,2276.00
2023-04-26T04:26:14.280Z,2612.00
2023-04-26T04:27:14.443Z,2788.00
2023-04-26T04:28:14.608Z,2892.00
2023-04-26T04:29:14.804Z,3548.00
2023-04-26T04:30:14.976Z,4124.00
2023-04-26T04:31:15.187Z,4176.00
2023-04-26T04:32:15.307Z,4292.00
2023-04-26T04:33:15.494Z,4344.00
2023-04-26T04:34:15.685Z,4612.00
2023-04-26T04:35:15.874Z,4976.00
2023-04-26T04:36:16.037Z,4992.00
2023-04-26T04:37:16.204Z,4964.00
2023-04-26T04:38:16.419Z,5396.00
2023-04-26T04:39:16.563Z,5936.00
2023-04-26T04:40:16.724Z,6276.00
2023-04-26T04:41:16.917Z,6188.00
2023-04-26T04:42:17.098Z,6036.00
2023-04-26T04:43:17.280Z,5708.00
2023-04-26T04:44:17.458Z,5328.00
2023-04-26T04:45:17.617Z,4800.00
2023-04-26T04:46:17.816Z,4220.00
2023-04-26T04:47:17.946Z,4436.00
2023-04-26T04:48:18.152Z,5192.00
2023-04-26T04:49:18.328Z,5944.00
2023-04-26T04:50:18.479Z,6396.00
2023-04-26T04:51:18.696Z,6148.00
2023-04-26T04:52:19.147Z,5828.00
2023-04-26T04:53:19.022Z,5920.00
2023-04-26T04:54:19.225Z,5720.00
2023-04-26T04:55:19.369Z,5564.00
2023-04-26T04:56:19.573Z,6112.00
2023-04-26T04:57:19.707Z,6736.00
2023-04-26T04:58:19.899Z,6672.00
2023-04-26T04:59:20.053Z,6280.00
2023-04-26T05:00:20.230Z,6004.00
2023-04-26T05:01:20.429Z,5748.00
2023-04-26T05:02:20.709Z,5676.00
2023-04-26T05:03:20.992Z,5696.00
2023-04-26T05:04:21.062Z,5828.00
2023-04-26T05:05:21.121Z,5744.00
2023-04-26T05:06:21.313Z,5684.00
2023-04-26T05:07:22.500Z,6204.00
2023-04-26T05:08:21.699Z,6636.00
2023-04-26T05:09:21.835Z,6752.00
2023-04-26T05:10:22.022Z,6988.00
2023-04-26T05:11:22.169Z,7572.00
2023-04-26T05:12:22.363Z,7816.00
2023-04-26T05:13:22.550Z,7792.00
2023-04-26T05:14:22.697Z,7956.00
2023-04-26T05:15:22.899Z,8092.00
2023-04-26T05:16:23.128Z,8380.00
2023-04-26T05:17:23.289Z,8780.00
2023-04-26T05:18:23.477Z,9224.00
2023-04-26T05:19:23.612Z,10588.00
2023-04-26T05:20:23.794Z,12028.00
2023-04-26T05:21:23.972Z,12600.00
2023-04-26T05:22:24.143Z,12976.00
2023-04-26T05:23:24.322Z,13184.00
2023-04-26T05:24:24.494Z,13312.00
2023-04-26T05:25:24.682Z,13356.00
2023-04-26T05:26:24.856Z,13548.00
2023-04-26T05:27:25.030Z,13556.00
2023-04-26T05:28:25.228Z,13556.00
2023-04-26T05:29:25.382Z,13652.00
2023-04-26T05:30:25.546Z,13564.00
2023-04-26T05:31:25.753Z,13396.00
2023-04-26T05:32:25.908Z,13096.00
2023-04-26T05:33:26.104Z,12848.00
2023-04-26T05:34:26.262Z,12424.00
2023-04-26T05:35:26.425Z,12348.00
2023-04-26T05:36:29.142Z,12048.00
2023-04-26T05:37:26.780Z,12144.00
2023-04-26T05:38:26.971Z,11524.00
2023-04-26T05:39:27.122Z,12208.00
2023-04-26T05:40:27.290Z,12348.00
2023-04-26T05:41:27.453Z,12504.00
2023-04-26T05:42:27.654Z,12580.00
2023-04-26T05:43:27.806Z,12648.00
2023-04-26T05:44:27.983Z,12908.00
2023-04-26T05:45:28.180Z,13520.00
2023-04-26T05:46:28.391Z,14588.00
2023-04-26T05:47:28.550Z,15804.00
2023-04-26T05:48:28.694Z,16256.00
2023-04-26T05:49:28.863Z,15224.00
2023-04-26T05:50:29.035Z,14508.00
2023-04-26T05:51:29.206Z,13168.00
2023-04-26T05:52:29.377Z,12504.00
2023-04-26T05:53:29.584Z,12480.00
2023-04-26T05:54:29.764Z,13176.00
2023-04-26T05:55:29.900Z,13456.00
2023-04-26T05:56:30.117Z,13172.00
2023-04-26T05:57:30.319Z,12296.00
2023-04-26T05:58:30.458Z,11160.00
2023-04-26T05:59:30.588Z,10616.00
2023-04-26T06:00:30.768Z,10708.00
2023-04-26T06:01:30.972Z,10888.00
2023-04-26T06:02:31.235Z,11284.00
2023-04-26T06:03:31.496Z,11356.00
2023-04-26T06:04:31.672Z,11572.00
2023-04-26T06:05:31.689Z,11604.00
2023-04-26T06:06:31.767Z,11880.00
2023-04-26T06:07:31.930Z,12168.00
2023-04-26T06:08:32.117Z,11716.00
2023-04-26T06:09:32.256Z,10352.00
2023-04-26T06:10:32.475Z,12760.00
2023-04-26T06:11:32.608Z,14172.00
2023-04-26T06:12:32.793Z,13888.00
2023-04-26T06:13:32.945Z,14392.00
2023-04-26T06:14:33.122Z,15648.00
2023-04-26T06:15:33.286Z,17248.00
2023-04-26T06:16:33.482Z,18272.00
2023-04-26T06:17:33.694Z,18432.00
2023-04-26T06:18:33.812Z,19872.00
2023-04-26T06:19:33.991Z,19264.00
2023-04-26T06:20:34.184Z,16576.00
2023-04-26T06:21:34.362Z,8788.00
2023-04-26T06:22:34.518Z,14060.00
2023-04-26T06:23:34.690Z,20352.00
2023-04-26T06:24:34.849Z,20160.00
2023-04-26T06:25:35.015Z,19936.00
2023-04-26T06:26:35.204Z,20064.00
2023-04-26T06:27:35.376Z,19936.00
2023-04-26T06:28:35.597Z,20608.00
2023-04-26T06:29:35.686Z,20352.00
2023-04-26T06:30:35.878Z,20032.00
2023-04-26T06:31:36.102Z,19840.00
2023-04-26T06:32:36.249Z,19776.00
2023-04-26T06:33:36.431Z,19808.00
2023-04-26T06:34:36.577Z,19168.00
2023-04-26T06:35:36.730Z,19520.00
2023-04-26T06:36:36.982Z,19616.00
2023-04-26T06:37:37.090Z,19968.00
2023-04-26T06:38:37.574Z,18816.00
2023-04-26T06:39:37.452Z,19296.00
2023-04-26T06:40:37.664Z,19680.00
2023-04-26T06:41:37.777Z,19424.00
2023-04-26T06:42:37.955Z,18528.00
2023-04-26T06:43:38.147Z,18272.00
2023-04-26T06:44:38.318Z,17504.00
2023-04-26T06:45:38.488Z,18016.00
2023-04-26T06:46:38.790Z,18592.00
2023-04-26T06:47:38.897Z,19296.00
2023-04-26T06:48:39.006Z,20960.00
2023-04-26T06:49:39.186Z,22144.00
2023-04-26T06:50:40.016Z,22496.00
2023-04-26T06:51:39.497Z,22880.00
2023-04-26T06:52:39.726Z,23744.00
2023-04-26T06:53:39.862Z,23424.00
2023-04-26T06:54:53.684Z,23712.00
2023-04-26T06:55:41.227Z,23072.00
2023-04-26T06:56:40.415Z,24256.00
2023-04-26T06:57:40.583Z,24352.00
2023-04-26T06:58:40.768Z,21632.00
2023-04-26T06:59:40.923Z,18976.00
2023-04-26T07:00:41.095Z,23360.00
2023-04-26T07:01:41.325Z,24288.00
2023-04-26T07:02:41.558Z,15256.00
2023-04-26T07:03:41.728Z,28992.00
2023-04-26T07:04:41.993Z,24864.00
2023-04-26T07:05:41.954Z,13304.00
2023-04-26T07:06:42.402Z,16352.00
2023-04-26T07:07:42.358Z,19392.00
2023-04-26T07:08:42.501Z,11348.00
2023-04-26T07:09:42.697Z,12568.00
2023-04-26T07:10:42.837Z,13476.00
2023-04-26T07:11:43.013Z,14656.00
2023-04-26T07:12:43.172Z,9524.00
2023-04-26T07:13:43.365Z,9632.00
2023-04-26T07:14:43.600Z,9148.00
2023-04-26T07:15:43.741Z,10792.00
2023-04-26T07:16:44.342Z,21504.00
2023-04-26T07:17:44.030Z,14360.00
2023-04-26T07:18:44.226Z,23136.00
2023-04-26T07:19:44.395Z,11680.00
2023-04-26T07:20:44.546Z,15884.00
2023-04-26T07:21:44.696Z,26464.00
2023-04-26T07:22:44.886Z,29312.00
2023-04-26T07:23:45.059Z,30720.00
2023-04-26T07:24:45.246Z,31616.00
2023-04-26T07:25:45.408Z,25856.00
2023-04-26T07:26:45.601Z,31040.00
2023-04-26T07:27:45.733Z,33760.00
2023-04-26T07:28:45.943Z,29984.00
2023-04-26T07:29:46.112Z,37184.00
2023-04-26T07:30:46.301Z,31808.00
2023-04-26T07:31:46.448Z,16212.00
2023-04-26T07:32:46.690Z,19264.00
2023-04-26T07:33:46.891Z,19008.00
2023-04-26T07:34:47.078Z,38048.00
2023-04-26T07:35:47.261Z,28512.00
2023-04-26T07:36:47.337Z,21408.00
2023-04-26T07:37:47.544Z,26496.00
2023-04-26T07:38:47.709Z,30432.00
2023-04-26T07:39:47.873Z,15708.00
2023-04-26T07:40:48.059Z,13620.00
2023-04-26T07:41:48.207Z,12600.00
2023-04-26T07:42:48.373Z,11260.00
2023-04-26T07:43:48.553Z,11404.00
2023-04-26T07:44:48.721Z,10584.00
2023-04-26T07:45:48.939Z,10100.00
2023-04-26T07:46:49.062Z,9480.00
2023-04-26T07:47:49.293Z,10540.00
2023-04-26T07:48:49.424Z,10624.00
2023-04-26T07:49:49.587Z,9852.00
2023-04-26T07:50:49.767Z,8600.00
2023-04-26T07:51:49.957Z,8436.00
2023-04-26T07:52:50.106Z,8760.00
2023-04-26T07:53:50.582Z,8620.00
2023-04-26T07:54:50.461Z,9276.00
2023-04-26T07:55:50.623Z,12472.00
2023-04-26T07:56:51.031Z,13020.00
2023-04-26T07:57:50.951Z,14144.00
2023-04-26T07:58:51.141Z,14468.00
2023-04-26T07:59:51.323Z,15260.00
2023-04-26T08:00:51.494Z,16644.00
2023-04-26T08:01:51.715Z,16476.00
2023-04-26T08:02:52.077Z,13436.00
2023-04-26T08:03:52.329Z,13300.00
2023-04-26T08:04:52.455Z,14764.00
2023-04-26T08:05:52.546Z,15688.00
2023-04-26T08:06:52.524Z,15848.00
2023-04-26T08:07:52.706Z,14328.00
2023-04-26T08:08:52.878Z,15300.00
2023-04-26T08:09:53.007Z,20896.00
2023-04-26T08:10:53.185Z,15884.00
2023-04-26T08:11:53.425Z,31680.00
2023-04-26T08:12:53.530Z,16004.00
2023-04-26T08:13:54.034Z,15556.00
2023-04-26T08:14:53.974Z,15400.00
2023-04-26T08:15:54.076Z,14628.00
2023-04-26T08:16:54.333Z,13332.00
2023-04-26T08:17:54.535Z,14176.00
2023-04-26T08:18:54.616Z,14004.00
2023-04-26T08:19:54.801Z,13832.00
2023-04-26T08:20:54.998Z,16096.00
2023-04-26T08:21:55.093Z,33952.00
2023-04-26T08:22:55.291Z,23104.00
2023-04-26T08:23:55.802Z,27456.00
2023-04-26T08:24:55.633Z,17568.00
2023-04-26T08:25:55.845Z,16672.00
2023-04-26T08:26:55.980Z,16412.00
2023-04-26T08:27:56.146Z,19936.00
2023-04-26T08:28:56.314Z,34912.00
2023-04-26T08:29:56.486Z,33920.00
2023-04-26T08:30:56.693Z,42592.00
2023-04-26T08:31:56.835Z,36672.00
2023-04-26T08:32:57.374Z,26304.00
2023-04-26T08:33:57.187Z,17696.00
2023-04-26T08:34:57.415Z,23232.00
2023-04-26T08:35:57.548Z,20096.00
2023-04-26T08:36:57.734Z,25600.00
2023-04-26T08:37:57.912Z,30368.00
2023-04-26T08:38:58.060Z,25536.00
2023-04-26T08:39:58.259Z,26944.00
2023-04-26T08:40:58.440Z,22048.00
2023-04-26T08:41:58.572Z,27232.00
2023-04-26T08:42:58.734Z,18272.00
2023-04-26T08:43:58.898Z,30048.00
2023-04-26T08:44:59.055Z,22144.00
2023-04-26T08:45:59.391Z,28960.00
2023-04-26T08:46:59.430Z,27936.00
2023-04-26T08:47:59.650Z,14072.00
2023-04-26T08:48:59.805Z,12604.00
2023-04-26T08:49:59.891Z,11336.00
2023-04-26T08:51:00.188Z,9960.00
2023-04-26T08:52:00.235Z,8788.00
2023-04-26T08:53:00.414Z,7604.00
2023-04-26T08:54:02.129Z,7244.00
2023-04-26T08:55:00.744Z,7740.00
2023-04-26T08:56:00.943Z,8184.00
2023-04-26T08:57:01.157Z,9060.00
2023-04-26T08:58:01.312Z,9788.00
2023-04-26T08:59:01.476Z,10504.00
2023-04-26T09:00:01.644Z,11780.00
2023-04-26T09:01:01.832Z,13376.00
2023-04-26T09:02:02.071Z,16048.00
2023-04-26T09:03:02.238Z,14804.00
2023-04-26T09:04:02.583Z,22624.00
2023-04-26T09:05:02.918Z,49536.00
2023-04-26T09:06:04.458Z,51136.00
2023-04-26T09:07:02.891Z,55456.00
2023-04-26T09:08:03.060Z,61344.00
2023-04-26T09:09:03.229Z,51776.00
2023-04-26T09:10:03.436Z,10492.00
2023-04-26T09:11:03.634Z,9328.00
2023-04-26T09:12:03.739Z,7836.00
2023-04-26T09:13:03.936Z,8744.00
2023-04-26T09:14:04.053Z,22688.00
2023-04-26T09:15:04.236Z,22464.00
2023-04-26T09:16:05.071Z,26720.00
2023-04-26T09:17:04.594Z,38624.00
2023-04-26T09:18:05.029Z,31680.00
2023-04-26T09:19:05.010Z,30752.00
2023-04-26T09:20:07.748Z,21600.00
2023-04-26T09:21:05.358Z,28352.00
2023-04-26T09:22:05.495Z,23200.00
2023-04-26T09:23:05.674Z,13624.00
2023-04-26T09:24:05.858Z,13468.00
2023-04-26T09:25:06.030Z,69632.00
2023-04-26T09:26:06.227Z,14684.00
2023-04-26T09:27:06.438Z,71264.00
2023-04-26T09:28:06.603Z,14496.00
2023-04-26T09:29:06.747Z,10852.00
2023-04-26T09:30:06.935Z,79104.00
2023-04-26T09:31:07.134Z,25312.00
2023-04-26T09:32:07.345Z,24288.00
2023-04-26T09:33:07.464Z,10988.00
2023-04-26T09:34:07.634Z,70848.00
2023-04-26T09:35:07.803Z,64288.00
2023-04-26T09:36:07.971Z,58944.00
2023-04-26T09:37:08.158Z,47136.00
2023-04-26T09:38:12.656Z,57344.00
2023-04-26T09:39:09.515Z,50176.00
2023-04-26T09:40:08.707Z,52192.00
2023-04-26T09:41:08.921Z,57344.00
2023-04-26T09:42:09.070Z,29792.00
2023-04-26T09:43:09.238Z,36512.00
2023-04-26T09:44:09.433Z,39648.00
2023-04-26T09:45:09.576Z,30272.00
2023-04-26T09:46:09.751Z,31008.00
2023-04-26T09:47:09.980Z,66304.00
2023-04-26T09:48:10.092Z,11316.00
2023-04-26T09:49:10.234Z,10412.00
2023-04-26T09:50:10.388Z,73600.00
2023-04-26T09:51:10.600Z,75616.00
2023-04-26T09:52:10.765Z,37120.00
2023-04-26T09:53:10.920Z,12764.00
2023-04-26T09:54:11.095Z,13820.00
2023-04-26T09:55:16.431Z,16796.00
2023-04-26T09:56:12.442Z,16936.00
2023-04-26T09:57:11.614Z,18976.00
2023-04-26T09:58:11.788Z,53248.00
2023-04-26T09:59:11.962Z,80480.00
2023-04-26T10:00:12.297Z,31840.00
2023-04-26T10:01:12.325Z,20544.00
2023-04-26T10:02:12.461Z,15676.00
2023-04-26T10:03:12.803Z,14716.00
2023-04-26T10:04:12.984Z,16144.00
2023-04-26T10:05:13.020Z,24192.00
2023-04-26T10:06:13.221Z,17696.00
2023-04-26T10:07:13.393Z,17184.00
2023-04-26T10:08:13.595Z,18048.00
2023-04-26T10:09:13.758Z,23840.00
2023-04-26T10:10:13.923Z,18720.00
2023-04-26T10:11:14.163Z,17504.00
2023-04-26T10:12:14.774Z,15700.00
2023-04-26T10:13:14.520Z,14096.00
2023-04-26T10:14:14.609Z,13672.00
2023-04-26T10:15:14.767Z,14548.00
2023-04-26T10:16:14.955Z,14532.00
2023-04-26T10:17:15.131Z,13884.00
2023-04-26T10:18:15.339Z,14152.00
2023-04-26T10:19:15.499Z,13864.00
2023-04-26T10:20:15.722Z,14260.00
2023-04-26T10:21:15.824Z,16280.00
2023-04-26T10:22:16.038Z,16308.00
2023-04-26T10:23:17.234Z,14684.00
2023-04-26T10:24:16.350Z,14316.00
2023-04-26T10:25:16.515Z,11784.00
2023-04-26T10:26:16.678Z,11372.00
2023-04-26T10:27:16.838Z,11968.00
2023-04-26T10:28:17.026Z,11672.00
2023-04-26T10:29:17.172Z,11440.00
2023-04-26T10:30:17.419Z,11700.00
2023-04-26T10:31:17.562Z,12060.00
2023-04-26T10:32:17.789Z,12428.00
2023-04-26T10:33:17.981Z,14076.00
2023-04-26T10:34:18.059Z,13564.00
2023-04-26T10:35:18.243Z,11740.00
2023-04-26T10:36:18.422Z,10160.00
2023-04-26T10:37:18.650Z,7988.00
2023-04-26T10:38:18.793Z,6532.00
2023-04-26T10:39:18.979Z,6428.00
2023-04-26T10:40:19.171Z,6676.00
2023-04-26T10:41:19.314Z,6272.00
2023-04-26T10:42:19.884Z,5624.00
2023-04-26T10:43:19.711Z,5324.00
2023-04-26T10:44:19.840Z,5096.00
2023-04-26T10:45:20.017Z,4536.00
2023-04-26T10:46:20.211Z,4076.00
2023-04-26T10:47:20.377Z,3836.00
2023-04-26T10:48:20.504Z,3932.00
2023-04-26T10:49:20.652Z,4068.00
2023-04-26T10:50:20.867Z,4584.00
2023-04-26T10:51:21.031Z,5408.00
2023-04-26T10:52:21.203Z,6180.00
2023-04-26T10:53:21.354Z,7004.00
2023-04-26T10:54:21.533Z,7640.00
2023-04-26T10:55:21.815Z,7988.00
2023-04-26T10:56:21.972Z,8392.00
2023-04-26T10:57:22.060Z,8844.00
2023-04-26T10:58:22.252Z,9284.00
2023-04-26T10:59:39.894Z,9980.00
2023-04-26T11:00:23.600Z,10668.00
2023-04-26T11:01:22.800Z,10880.00
2023-04-26T11:02:23.021Z,11060.00
2023-04-26T11:03:23.393Z,11496.00
2023-04-26T11:04:23.360Z,11168.00
2023-04-26T11:05:25.412Z,10716.00
2023-04-26T11:06:23.649Z,10816.00
2023-04-26T11:07:23.822Z,11140.00
2023-04-26T11:08:24.003Z,11268.00
2023-04-26T11:09:24.177Z,11524.00
2023-04-26T11:10:24.353Z,11228.00
2023-04-26T11:11:24.540Z,11348.00
2023-04-26T11:12:24.673Z,11116.00
2023-04-26T11:13:24.872Z,10692.00
2023-04-26T11:14:25.036Z,9248.00
2023-04-26T11:15:25.217Z,8384.00
2023-04-26T11:16:25.438Z,8284.00
2023-04-26T11:17:25.624Z,8444.00
2023-04-26T11:18:25.779Z,8648.00
2023-04-26T11:19:25.932Z,8648.00
2023-04-26T11:20:26.118Z,9132.00
2023-04-26T11:21:26.300Z,9400.00
2023-04-26T11:22:26.620Z,9916.00
2023-04-26T11:23:26.658Z,10596.00
2023-04-26T11:24:26.856Z,11368.00
2023-04-26T11:25:27.018Z,11824.00
2023-04-26T11:26:27.201Z,11788.00
2023-04-26T11:27:27.368Z,11228.00
2023-04-26T11:28:27.544Z,10064.00
2023-04-26T11:29:27.713Z,8880.00
2023-04-26T11:30:27.895Z,7888.00
2023-04-26T11:31:28.144Z,7452.00
2023-04-26T11:32:28.261Z,7452.00
2023-04-26T11:33:28.506Z,7680.00
2023-04-26T11:34:28.630Z,7884.00
2023-04-26T11:35:28.823Z,8404.00
2023-04-26T11:36:28.991Z,9556.00
2023-04-26T11:37:29.138Z,10428.00
2023-04-26T11:38:29.345Z,11544.00
2023-04-26T11:39:29.475Z,12444.00
2023-04-26T11:40:29.662Z,12968.00
2023-04-26T11:41:29.852Z,12304.00
2023-04-26T11:42:30.067Z,11352.00
2023-04-26T11:43:30.269Z,10616.00
2023-04-26T11:44:30.372Z,9736.00
2023-04-26T11:45:30.537Z,8752.00
2023-04-26T11:46:30.737Z,9112.00
2023-04-26T11:47:30.908Z,10172.00
2023-04-26T11:48:31.069Z,10276.00
2023-04-26T11:49:31.231Z,10840.00
2023-04-26T11:50:31.391Z,12960.00
2023-04-26T11:51:32.223Z,11388.00
2023-04-26T11:52:31.775Z,9908.00
2023-04-26T11:53:31.949Z,10372.00
2023-04-26T11:54:32.117Z,11228.00
2023-04-26T11:55:32.303Z,11484.00
2023-04-26T11:56:32.473Z,11884.00
2023-04-26T11:57:32.663Z,11972.00
2023-04-26T11:58:32.851Z,12104.00
2023-04-26T11:59:32.969Z,11680.00
2023-04-26T12:00:33.181Z,11880.00
2023-04-26T12:01:33.327Z,11424.00
2023-04-26T12:02:33.650Z,11728.00
2023-04-26T12:03:33.809Z,12428.00
2023-04-26T12:04:34.119Z,12920.00
2023-04-26T12:05:34.092Z,12280.00
2023-04-26T12:06:34.184Z,10308.00
2023-04-26T12:07:34.417Z,8876.00
2023-04-26T12:08:34.556Z,8292.00
2023-04-26T12:09:34.700Z,8384.00
2023-04-26T12:10:34.902Z,8908.00
2023-04-26T12:11:35.095Z,8904.00
2023-04-26T12:12:35.263Z,8492.00
2023-04-26T12:13:35.450Z,8608.00
2023-04-26T12:14:35.626Z,9072.00
2023-04-26T12:15:35.773Z,9528.00
2023-04-26T12:16:35.988Z,10256.00
2023-04-26T12:17:36.206Z,10780.00